Terminal Aerodrome Forecast
Issued by NWS

Home | Current Version | Previous Version | Text Only | Print | Product List | Glossary On
Versions: 1 2 3 4 5 6 7 8 9 10 11 12 13 14 15 16 17 18
000
FTUS45 KABQ 281700
TAFFMN
TAF
KFMN 281725Z 2818/2918 VRB05KT P6SM SCT100 BKN200
     FM290300 08006KT P6SM SKC
     FM291600 11007KT P6SM BKN040=

USA.gov is the U.S. government's official web portal to all federal, state and local government web resources and services.